Time;durP1;ratioP1;P1;durP2;ratioP2;P2;SDS_P1;SDS_P2;PMS_P1;PMS_P2;Temp;Humidity;BMP_temperature;BMP_pressure;BME280_temperature;BME280_humidity;BME280_pressure;Samples;Min_cycle;Max_cycle;Signal;HPM_P1;HPM_P2
2023/10/26 00:01:33;;;;;;;34.60;27.03;;;;;;;;;;5074242;28;20463;-83
2023/10/26 00:03:59;;;;;;;37.17;28.80;;;;;;;;;;5075451;28;20463;-83
2023/10/26 00:06:26;;;;;;;35.30;27.43;;;;;;;;;;5075979;28;20462;-83
2023/10/26 00:08:52;;;;;;;39.83;28.93;;;;;;;;;;5075805;28;20439;-81
2023/10/26 00:11:18;;;;;;;37.70;27.87;;;;;;;;;;5075007;28;20462;-83
2023/10/26 00:13:46;;;;;;;39.13;28.40;;;;;;;;;;5075916;28;20459;-83
2023/10/26 00:16:12;;;;;;;38.93;29.60;;;;;;;;;;5075301;28;20755;-82
2023/10/26 00:18:39;;;;;;;41.50;30.70;;;;;;;;;;5075413;28;20419;-82
2023/10/26 00:21:05;;;;;;;39.87;30.60;;;;;;;;;;5075061;28;20985;-82
2023/10/26 00:23:31;;;;;;;39.43;30.27;;;;;;;;;;5075343;28;20966;-83
2023/10/26 00:25:58;;;;;;;38.07;29.37;;;;;;;;;;5075296;28;20425;-82
2023/10/26 00:28:25;;;;;;;39.60;30.40;;;;;;;;;;5075484;28;20413;-83
2023/10/26 00:30:52;;;;;;;43.73;30.67;;;;;;;;;;5075553;28;20410;-82
2023/10/26 00:33:19;;;;;;;43.27;31.60;;;;;;;;;;5074935;28;20445;-82
2023/10/26 00:35:45;;;;;;;42.20;31.73;;;;;;;;;;5075462;28;20413;-83
2023/10/26 00:38:12;;;;;;;44.50;31.40;;;;;;;;;;5075036;28;20873;-82
2023/10/26 00:40:39;;;;;;;45.23;32.10;;;;;;;;;;5075547;28;20996;-83
2023/10/26 00:43:05;;;;;;;45.70;33.13;;;;;;;;;;5075263;28;20493;-83
2023/10/26 00:45:32;;;;;;;47.00;32.43;;;;;;;;;;5075669;28;20441;-83
2023/10/26 00:48:00;;;;;;;47.23;31.43;;;;;;;;;;5075138;28;20854;-83
2023/10/26 00:50:26;;;;;;;45.77;33.90;;;;;;;;;;5075176;28;20927;-83
2023/10/26 00:52:53;;;;;;;49.30;32.37;;;;;;;;;;5075296;28;20455;-83
2023/10/26 00:55:19;;;;;;;46.10;32.17;;;;;;;;;;5074209;28;20216;-83
2023/10/26 00:57:46;;;;;;;40.77;31.60;;;;;;;;;;5073639;28;20494;-82
2023/10/26 01:00:13;;;;;;;45.33;31.50;;;;;;;;;;5075396;28;20449;-83
2023/10/26 01:02:39;;;;;;;39.07;29.40;;;;;;;;;;5075176;28;20467;-84
2023/10/26 01:05:08;;;;;;;38.37;28.93;;;;;;;;;;5074131;28;20939;-82
2023/10/26 01:07:34;;;;;;;38.87;28.50;;;;;;;;;;5073973;28;20517;-82
2023/10/26 01:10:01;;;;;;;43.10;28.77;;;;;;;;;;5074937;28;21023;-81
2023/10/26 01:12:28;;;;;;;37.10;27.50;;;;;;;;;;5075692;28;20463;-81
2023/10/26 01:14:54;;;;;;;40.33;29.23;;;;;;;;;;5078528;28;20481;-83
2023/10/26 01:17:21;;;;;;;34.63;26.93;;;;;;;;;;5078026;28;20498;-81
2023/10/26 01:29:02;;;;;;;32.30;23.00;;;;;;;;;;5079419;28;20405;-82
2023/10/26 01:31:28;;;;;;;30.67;22.90;;;;;;;;;;5078878;28;20423;-82
2023/10/26 01:33:55;;;;;;;31.23;24.10;;;;;;;;;;5078195;28;20512;-82
2023/10/26 01:36:21;;;;;;;29.70;22.90;;;;;;;;;;5079484;28;20443;-82
2023/10/26 01:38:48;;;;;;;27.93;21.90;;;;;;;;;;5077908;28;20438;-82
2023/10/26 01:41:14;;;;;;;26.43;21.43;;;;;;;;;;5078502;28;20466;-82
2023/10/26 01:43:40;;;;;;;27.33;20.37;;;;;;;;;;5078932;28;20459;-82
2023/10/26 01:46:08;;;;;;;28.37;20.93;;;;;;;;;;5078670;28;20443;-82
2023/10/26 01:48:35;;;;;;;34.80;21.57;;;;;;;;;;5075159;28;20896;-82
2023/10/26 01:51:01;;;;;;;26.60;20.63;;;;;;;;;;5079217;28;20435;-82
2023/10/26 01:53:28;;;;;;;33.83;22.30;;;;;;;;;;5077589;28;20971;-83
2023/10/26 01:55:54;;;;;;;27.20;20.97;;;;;;;;;;5078532;28;20903;-83
2023/10/26 01:58:20;;;;;;;26.80;19.90;;;;;;;;;;5078443;28;20813;-82
2023/10/26 02:00:47;;;;;;;26.10;19.73;;;;;;;;;;5077221;28;20475;-83
2023/10/26 02:03:15;;;;;;;24.60;20.00;;;;;;;;;;5077245;28;20458;-83
2023/10/26 02:05:42;;;;;;;24.27;18.87;;;;;;;;;;5078287;28;20438;-83
2023/10/26 02:08:09;;;;;;;24.03;19.30;;;;;;;;;;5077813;28;20471;-83
2023/10/26 02:10:35;;;;;;;26.07;18.63;;;;;;;;;;5078357;28;20446;-82
2023/10/26 02:13:02;;;;;;;29.27;20.20;;;;;;;;;;5078293;28;20470;-82
2023/10/26 02:15:29;;;;;;;25.80;18.63;;;;;;;;;;5078319;28;20441;-82
2023/10/26 02:17:55;;;;;;;31.23;21.67;;;;;;;;;;5078316;28;20471;-82
2023/10/26 02:20:23;;;;;;;25.10;20.07;;;;;;;;;;5078139;28;20414;-82
2023/10/26 02:22:49;;;;;;;32.77;21.33;;;;;;;;;;5077976;28;20828;-82
2023/10/26 02:25:16;;;;;;;29.63;22.53;;;;;;;;;;5076981;28;20512;-82
2023/10/26 02:27:42;;;;;;;31.50;21.83;;;;;;;;;;5077955;28;20984;-82
2023/10/26 02:30:09;;;;;;;30.73;22.80;;;;;;;;;;5078380;28;20435;-82
2023/10/26 02:32:35;;;;;;;29.80;24.20;;;;;;;;;;5076542;28;20520;-82
2023/10/26 02:35:02;;;;;;;28.77;21.53;;;;;;;;;;5078101;28;20458;-82
2023/10/26 02:37:32;;;;;;;32.47;24.80;;;;;;;;;;5076389;28;20793;-82
2023/10/26 02:39:59;;;;;;;33.47;24.23;;;;;;;;;;5077263;28;20425;-82
2023/10/26 02:42:26;;;;;;;33.40;22.40;;;;;;;;;;5077411;28;20474;-83
2023/10/26 02:44:52;;;;;;;29.40;22.53;;;;;;;;;;5078029;28;20491;-83
2023/10/26 02:47:19;;;;;;;32.77;23.37;;;;;;;;;;5077849;28;20467;-83
2023/10/26 02:49:45;;;;;;;32.57;22.30;;;;;;;;;;5078030;28;20423;-83
2023/10/26 02:52:11;;;;;;;33.83;24.10;;;;;;;;;;5077117;28;20466;-83
2023/10/26 02:54:39;;;;;;;36.33;24.50;;;;;;;;;;5077635;28;20434;-83
2023/10/26 02:57:06;;;;;;;38.33;25.20;;;;;;;;;;5077085;28;20553;-83
2023/10/26 02:59:33;;;;;;;34.80;24.53;;;;;;;;;;5077828;28;20517;-83
2023/10/26 03:01:59;;;;;;;38.73;26.63;;;;;;;;;;5077628;28;20475;-83
2023/10/26 03:04:25;;;;;;;37.03;26.00;;;;;;;;;;5077576;28;20462;-84
2023/10/26 03:06:52;;;;;;;35.60;25.97;;;;;;;;;;5077051;28;20441;-83
2023/10/26 03:09:19;;;;;;;35.30;25.27;;;;;;;;;;5077773;28;20435;-84
2023/10/26 03:11:48;;;;;;;37.10;24.17;;;;;;;;;;5076862;28;20478;-83
2023/10/26 03:14:15;;;;;;;35.53;25.50;;;;;;;;;;5077572;28;20554;-83
2023/10/26 03:16:41;;;;;;;32.53;23.03;;;;;;;;;;5075719;28;20474;-84
2023/10/26 03:19:07;;;;;;;38.50;24.63;;;;;;;;;;5076861;28;20416;-83
2023/10/26 03:21:34;;;;;;;37.30;24.20;;;;;;;;;;5075585;28;20459;-83
2023/10/26 03:24:00;;;;;;;36.43;24.27;;;;;;;;;;5076781;28;20470;-84
2023/10/26 03:26:27;;;;;;;34.23;23.60;;;;;;;;;;5076396;28;20446;-83
2023/10/26 03:28:55;;;;;;;32.83;23.40;;;;;;;;;;5076191;28;20784;-83
2023/10/26 03:31:23;;;;;;;31.10;24.40;;;;;;;;;;5076645;28;20806;-81
2023/10/26 03:33:50;;;;;;;36.23;24.57;;;;;;;;;;5077043;28;20459;-83
2023/10/26 03:36:17;;;;;;;36.60;23.90;;;;;;;;;;5076694;28;20446;-83
2023/10/26 03:38:43;;;;;;;34.27;23.37;;;;;;;;;;5076884;28;20438;-84
2023/10/26 03:41:09;;;;;;;38.83;24.20;;;;;;;;;;5076112;28;20838;-83
2023/10/26 03:43:36;;;;;;;35.47;22.97;;;;;;;;;;5075586;28;20508;-83
2023/10/26 03:46:04;;;;;;;31.97;22.77;;;;;;;;;;5076689;28;20465;-84
2023/10/26 03:48:31;;;;;;;31.03;22.50;;;;;;;;;;5075974;28;20884;-83
2023/10/26 03:50:57;;;;;;;34.43;25.33;;;;;;;;;;5076760;28;20450;-82
2023/10/26 03:53:24;;;;;;;32.90;23.80;;;;;;;;;;5075472;28;20459;-81
2023/10/26 03:55:50;;;;;;;35.20;23.37;;;;;;;;;;5076385;28;20510;-82
2023/10/26 03:58:17;;;;;;;32.80;23.40;;;;;;;;;;5075886;28;20470;-82
2023/10/26 04:00:44;;;;;;;34.07;24.00;;;;;;;;;;5074942;28;20443;-83
2023/10/26 04:03:11;;;;;;;37.07;25.37;;;;;;;;;;5074553;28;20494;-81
2023/10/26 04:05:38;;;;;;;32.40;23.10;;;;;;;;;;5076194;28;20439;-83
2023/10/26 04:08:05;;;;;;;33.90;24.20;;;;;;;;;;5075059;28;20462;-83
2023/10/26 04:10:31;;;;;;;34.40;23.97;;;;;;;;;;5075292;28;20447;-83
2023/10/26 04:12:58;;;;;;;34.83;25.17;;;;;;;;;;5074092;28;20470;-81
2023/10/26 04:15:24;;;;;;;38.63;25.07;;;;;;;;;;5076263;28;20467;-82
2023/10/26 04:17:51;;;;;;;34.30;23.07;;;;;;;;;;5074568;28;20842;-83
2023/10/26 04:20:20;;;;;;;37.00;24.40;;;;;;;;;;5075212;28;20446;-84
2023/10/26 04:22:46;;;;;;;34.37;24.33;;;;;;;;;;5075731;28;20471;-83
2023/10/26 04:25:13;;;;;;;37.10;24.40;;;;;;;;;;5075815;28;20980;-81
2023/10/26 04:27:39;;;;;;;42.50;25.90;;;;;;;;;;5073439;28;20467;-83
2023/10/26 04:30:07;;;;;;;41.43;24.03;;;;;;;;;;5075601;28;20431;-83
2023/10/26 04:32:33;;;;;;;34.20;23.50;;;;;;;;;;5075342;28;20478;-83
2023/10/26 04:35:00;;;;;;;39.97;26.20;;;;;;;;;;5075523;28;21103;-83
2023/10/26 04:37:28;;;;;;;33.70;23.57;;;;;;;;;;5074965;28;20471;-83
2023/10/26 04:39:54;;;;;;;36.70;25.03;;;;;;;;;;5075227;28;20450;-84
2023/10/26 04:42:21;;;;;;;38.73;25.10;;;;;;;;;;5073879;28;20478;-81
2023/10/26 04:44:47;;;;;;;33.77;24.33;;;;;;;;;;5075263;28;20995;-83
2023/10/26 04:47:13;;;;;;;37.80;26.03;;;;;;;;;;5074836;28;20478;-83
2023/10/26 04:49:41;;;;;;;37.20;24.50;;;;;;;;;;5075183;28;20447;-83
2023/10/26 04:52:08;;;;;;;40.10;24.17;;;;;;;;;;5075236;28;20527;-83
2023/10/26 04:54:35;;;;;;;38.33;23.83;;;;;;;;;;5075469;28;20463;-83
2023/10/26 04:57:02;;;;;;;42.27;26.07;;;;;;;;;;5075863;28;20486;-83
2023/10/26 04:59:28;;;;;;;40.33;25.53;;;;;;;;;;5075600;28;20940;-83
2023/10/26 05:01:55;;;;;;;34.77;22.00;;;;;;;;;;5074969;28;20466;-83
2023/10/26 05:04:21;;;;;;;40.00;28.00;;;;;;;;;;5075317;28;20455;-83
2023/10/26 05:06:47;;;;;;;33.27;23.23;;;;;;;;;;5075199;28;20470;-83
2023/10/26 05:09:14;;;;;;;35.60;24.23;;;;;;;;;;5074105;28;20472;-83
2023/10/26 05:11:42;;;;;;;36.70;23.20;;;;;;;;;;5073509;28;20520;-83
2023/10/26 05:14:09;;;;;;;29.37;21.17;;;;;;;;;;5075822;28;20810;-83
2023/10/26 05:16:35;;;;;;;36.60;26.30;;;;;;;;;;5076254;28;20461;-82
2023/10/26 05:19:02;;;;;;;31.30;23.20;;;;;;;;;;5075677;28;20443;-82
2023/10/26 05:21:28;;;;;;;39.33;24.33;;;;;;;;;;5075082;28;20483;-83
2023/10/26 05:23:55;;;;;;;33.37;24.20;;;;;;;;;;5075497;28;20455;-82
2023/10/26 05:26:21;;;;;;;35.43;22.60;;;;;;;;;;5074872;28;20446;-82
2023/10/26 05:28:49;;;;;;;38.03;23.80;;;;;;;;;;5074178;28;20435;-83
2023/10/26 05:31:15;;;;;;;33.57;22.97;;;;;;;;;;5074567;28;20439;-83
2023/10/26 05:33:42;;;;;;;37.77;24.00;;;;;;;;;;5075296;28;20455;-83
2023/10/26 05:36:08;;;;;;;37.03;24.03;;;;;;;;;;5074380;28;20447;-82
2023/10/26 05:38:35;;;;;;;35.40;23.90;;;;;;;;;;5068974;28;21217;-83
2023/10/26 05:41:01;;;;;;;35.43;23.13;;;;;;;;;;5073224;28;20796;-84
2023/10/26 05:43:27;;;;;;;37.67;21.63;;;;;;;;;;5072068;28;20479;-83
2023/10/26 05:46:02;;;;;;;34.67;22.60;;;;;;;;;;5072942;28;20807;-84
2023/10/26 05:48:30;;;;;;;32.43;20.73;;;;;;;;;;5072480;28;20474;-84
2023/10/26 05:50:56;;;;;;;30.30;20.50;;;;;;;;;;5072641;28;20470;-83
2023/10/26 05:53:23;;;;;;;34.47;23.63;;;;;;;;;;5071353;28;20474;-83
2023/10/26 05:55:55;;;;;;;31.90;22.40;;;;;;;;;;5074503;28;20827;-83
2023/10/26 05:58:22;;;;;;;34.00;21.67;;;;;;;;;;5074121;28;20449;-84
2023/10/26 06:00:48;;;;;;;42.73;23.00;;;;;;;;;;5077910;28;20446;-83
2023/10/26 06:03:16;;;;;;;34.70;21.20;;;;;;;;;;5077260;28;20483;-84
2023/10/26 06:05:42;;;;;;;32.93;21.87;;;;;;;;;;5078460;28;20435;-83
2023/10/26 06:08:10;;;;;;;34.07;21.77;;;;;;;;;;5077613;28;20471;-81
2023/10/26 06:10:37;;;;;;;37.90;23.30;;;;;;;;;;5076980;28;20442;-84
2023/10/26 06:13:03;;;;;;;35.20;20.67;;;;;;;;;;5076536;28;20466;-84
2023/10/26 06:15:30;;;;;;;31.93;21.20;;;;;;;;;;5077576;28;20451;-83
2023/10/26 06:17:57;;;;;;;32.17;21.77;;;;;;;;;;5076205;28;20475;-83
2023/10/26 06:20:27;;;;;;;39.07;23.40;;;;;;;;;;5077385;28;20431;-83
2023/10/26 06:22:54;;;;;;;32.67;21.20;;;;;;;;;;5077326;28;20474;-83
2023/10/26 06:25:20;;;;;;;30.50;21.30;;;;;;;;;;5059674;28;20545;-83
2023/10/26 06:27:47;;;;;;;37.20;23.40;;;;;;;;;;5077194;28;20467;-84
2023/10/26 06:30:15;;;;;;;38.40;21.90;;;;;;;;;;5077950;28;20409;-84
2023/10/26 06:32:41;;;;;;;35.20;22.57;;;;;;;;;;5077488;28;20470;-81
2023/10/26 06:35:08;;;;;;;35.23;21.33;;;;;;;;;;5076104;28;20459;-84
2023/10/26 06:37:36;;;;;;;36.47;21.60;;;;;;;;;;5076997;28;20485;-83
2023/10/26 06:40:03;;;;;;;39.67;24.37;;;;;;;;;;5076620;28;20477;-83
2023/10/26 06:42:29;;;;;;;43.50;22.60;;;;;;;;;;5076500;28;20467;-83
2023/10/26 06:44:56;;;;;;;33.93;22.33;;;;;;;;;;5076866;28;20454;-84
2023/10/26 06:47:22;;;;;;;40.03;22.80;;;;;;;;;;5076650;28;20471;-83
2023/10/26 06:49:49;;;;;;;35.40;22.47;;;;;;;;;;5075809;28;20471;-83
2023/10/26 06:52:15;;;;;;;33.90;23.33;;;;;;;;;;5075329;28;20983;-83
2023/10/26 06:54:43;;;;;;;34.00;22.33;;;;;;;;;;5076884;28;20467;-83
2023/10/26 06:57:09;;;;;;;37.20;24.30;;;;;;;;;;5076935;28;20467;-83
2023/10/26 06:59:35;;;;;;;40.13;22.57;;;;;;;;;;5077348;28;20443;-83
2023/10/26 07:02:02;;;;;;;43.37;23.97;;;;;;;;;;5076520;28;20532;-83
2023/10/26 07:04:28;;;;;;;33.13;20.83;;;;;;;;;;5076445;28;20463;-84
2023/10/26 07:06:54;;;;;;;33.90;22.23;;;;;;;;;;5076304;28;20442;-83
2023/10/26 07:09:21;;;;;;;38.37;24.40;;;;;;;;;;5076341;28;20439;-84
2023/10/26 07:11:49;;;;;;;38.03;22.50;;;;;;;;;;5074387;28;20470;-84
2023/10/26 07:14:16;;;;;;;38.87;24.20;;;;;;;;;;5076624;28;21000;-84
2023/10/26 07:16:42;;;;;;;41.07;24.87;;;;;;;;;;5076209;28;20473;-84
2023/10/26 07:19:09;;;;;;;40.60;23.00;;;;;;;;;;5076366;28;20446;-82
2023/10/26 07:21:36;;;;;;;40.13;23.30;;;;;;;;;;5076115;28;20438;-82
2023/10/26 07:24:03;;;;;;;39.23;24.87;;;;;;;;;;5074782;28;20479;-82
2023/10/26 07:26:30;;;;;;;37.33;25.30;;;;;;;;;;5076280;28;20508;-84
2023/10/26 07:28:57;;;;;;;38.83;24.17;;;;;;;;;;5076653;28;20810;-82
2023/10/26 07:31:24;;;;;;;42.63;24.23;;;;;;;;;;5076015;28;20947;-82
2023/10/26 07:33:51;;;;;;;41.73;25.80;;;;;;;;;;5076290;28;20455;-84
2023/10/26 07:36:17;;;;;;;36.87;23.30;;;;;;;;;;5075757;28;20442;-84
2023/10/26 07:38:44;;;;;;;42.20;25.23;;;;;;;;;;5076120;28;20470;-83
2023/10/26 07:41:11;;;;;;;40.37;24.93;;;;;;;;;;5075623;28;20439;-84
2023/10/26 07:43:37;;;;;;;38.23;25.10;;;;;;;;;;5074991;28;20497;-84
2023/10/26 07:46:06;;;;;;;39.57;25.13;;;;;;;;;;5075033;28;20472;-84
2023/10/26 07:48:34;;;;;;;45.77;26.47;;;;;;;;;;5074374;28;20520;-83
2023/10/26 07:51:00;;;;;;;38.60;24.97;;;;;;;;;;5074668;28;20450;-82
2023/10/26 07:53:28;;;;;;;47.53;28.67;;;;;;;;;;5075606;28;20471;-82
2023/10/26 07:55:57;;;;;;;46.10;26.47;;;;;;;;;;5074519;28;20963;-84
2023/10/26 07:58:24;;;;;;;46.03;25.60;;;;;;;;;;5075213;28;20532;-85
2023/10/26 08:00:50;;;;;;;45.67;27.57;;;;;;;;;;5075814;28;20425;-82
2023/10/26 08:03:18;;;;;;;47.73;27.20;;;;;;;;;;5073981;28;20475;-83
2023/10/26 08:05:44;;;;;;;44.00;26.73;;;;;;;;;;5075360;28;20417;-84
2023/10/26 08:08:10;;;;;;;46.73;28.10;;;;;;;;;;5075347;28;21026;-84
2023/10/26 08:10:37;;;;;;;43.50;25.90;;;;;;;;;;5075391;28;20788;-84
2023/10/26 08:13:05;;;;;;;46.17;27.90;;;;;;;;;;5075115;28;20951;-84
2023/10/26 08:15:31;;;;;;;47.57;27.37;;;;;;;;;;5075090;28;20502;-83
2023/10/26 08:17:57;;;;;;;49.63;29.47;;;;;;;;;;5074603;28;20988;-83
2023/10/26 08:20:25;;;;;;;44.70;28.50;;;;;;;;;;5075339;28;20903;-82
2023/10/26 08:22:52;;;;;;;44.43;27.40;;;;;;;;;;5074153;28;20475;-84
2023/10/26 08:25:18;;;;;;;42.30;27.93;;;;;;;;;;5073496;28;20467;-84
2023/10/26 08:27:45;;;;;;;44.00;26.43;;;;;;;;;;5074603;28;20992;-84
2023/10/26 08:30:12;;;;;;;44.37;27.10;;;;;;;;;;5074725;28;20936;-84
2023/10/26 08:32:38;;;;;;;49.67;27.97;;;;;;;;;;5074612;28;20835;-84
2023/10/26 08:35:05;;;;;;;49.93;29.53;;;;;;;;;;5073809;28;20977;-84
2023/10/26 08:37:33;;;;;;;42.70;26.23;;;;;;;;;;5074597;28;20478;-83
2023/10/26 08:40:01;;;;;;;46.03;26.40;;;;;;;;;;5073504;28;20447;-84
2023/10/26 08:42:27;;;;;;;44.30;27.10;;;;;;;;;;5074492;28;20991;-84
2023/10/26 08:44:54;;;;;;;43.30;26.30;;;;;;;;;;5074656;28;20980;-84
2023/10/26 08:47:22;;;;;;;46.00;26.40;;;;;;;;;;5072206;28;20463;-83
2023/10/26 08:49:52;;;;;;;44.97;28.03;;;;;;;;;;5073265;28;20443;-83
2023/10/26 08:52:18;;;;;;;45.07;28.17;;;;;;;;;;5074496;28;20470;-84
2023/10/26 08:54:47;;;;;;;42.67;25.40;;;;;;;;;;5073463;28;21057;-84
2023/10/26 08:57:14;;;;;;;41.27;26.10;;;;;;;;;;5074851;28;20501;-84
2023/10/26 08:59:42;;;;;;;38.50;25.40;;;;;;;;;;5074929;28;21015;-82
2023/10/26 09:02:09;;;;;;;41.73;26.00;;;;;;;;;;5074252;28;20501;-81
2023/10/26 09:04:35;;;;;;;40.80;26.20;;;;;;;;;;5074532;28;20482;-82
2023/10/26 09:07:01;;;;;;;37.70;24.80;;;;;;;;;;5074367;28;20799;-83
2023/10/26 09:09:28;;;;;;;44.03;26.90;;;;;;;;;;5074746;28;20551;-84
2023/10/26 09:12:08;;;;;;;41.43;26.30;;;;;;;;;;5074033;28;20442;-84
2023/10/26 09:14:34;;;;;;;44.93;27.60;;;;;;;;;;5073189;28;20433;-82
2023/10/26 09:17:01;;;;;;;36.43;25.13;;;;;;;;;;5073775;28;20440;-82
2023/10/26 09:19:37;;;;;;;40.03;26.07;;;;;;;;;;5074764;28;20451;-82
2023/10/26 09:22:04;;;;;;;37.57;25.17;;;;;;;;;;5074085;28;20466;-83
2023/10/26 09:24:30;;;;;;;41.93;24.93;;;;;;;;;;5072876;28;20461;-82
2023/10/26 09:26:59;;;;;;;40.27;25.57;;;;;;;;;;5072666;28;20470;-83
2023/10/26 09:29:44;;;;;;;40.43;25.43;;;;;;;;;;5074311;28;20443;-82
2023/10/26 09:32:11;;;;;;;40.77;25.23;;;;;;;;;;5072520;28;20441;-82
2023/10/26 09:34:41;;;;;;;36.70;26.27;;;;;;;;;;5077140;28;20493;-82
2023/10/26 09:37:07;;;;;;;43.47;25.97;;;;;;;;;;5077827;28;20467;-83
2023/10/26 09:39:35;;;;;;;39.23;25.60;;;;;;;;;;5077985;28;20443;-82
2023/10/26 09:42:05;;;;;;;34.10;23.20;;;;;;;;;;5077646;28;20449;-82
2023/10/26 09:44:32;;;;;;;32.40;22.90;;;;;;;;;;5078205;28;20573;-82
2023/10/26 09:46:59;;;;;;;34.30;22.47;;;;;;;;;;5079410;28;20478;-83
2023/10/26 09:49:26;;;;;;;36.33;23.60;;;;;;;;;;5077766;28;20425;-83
2023/10/26 09:51:52;;;;;;;44.80;24.87;;;;;;;;;;5077378;28;20455;-82
2023/10/26 09:54:19;;;;;;;40.03;22.00;;;;;;;;;;5076228;28;20467;-83
2023/10/26 09:56:48;;;;;;;32.13;22.70;;;;;;;;;;5077369;28;20465;-83
2023/10/26 09:59:16;;;;;;;37.97;22.57;;;;;;;;;;5077275;28;20815;-83
2023/10/26 10:01:45;;;;;;;36.10;22.90;;;;;;;;;;5076758;28;20508;-83
2023/10/26 10:04:12;;;;;;;35.60;22.97;;;;;;;;;;5076368;28;20506;-83
2023/10/26 10:06:51;;;;;;;36.50;23.33;;;;;;;;;;5075658;28;20520;-83
2023/10/26 10:09:19;;;;;;;36.40;22.80;;;;;;;;;;5077264;28;20925;-83
2023/10/26 10:11:45;;;;;;;32.07;22.40;;;;;;;;;;5076841;28;20458;-83
2023/10/26 10:14:26;;;;;;;36.23;23.80;;;;;;;;;;5077293;28;20429;-83
2023/10/26 10:16:54;;;;;;;35.43;23.83;;;;;;;;;;5076952;28;20516;-82
2023/10/26 10:19:21;;;;;;;33.67;22.87;;;;;;;;;;5076360;28;20418;-83
2023/10/26 10:21:48;;;;;;;34.03;21.93;;;;;;;;;;5075818;28;20963;-83
2023/10/26 10:24:32;;;;;;;32.70;22.40;;;;;;;;;;5076864;28;20453;-83
2023/10/26 10:27:09;;;;;;;31.50;21.27;;;;;;;;;;5077216;28;20464;-83
2023/10/26 10:29:35;;;;;;;30.90;21.63;;;;;;;;;;5076982;28;20928;-83
2023/10/26 10:32:03;;;;;;;30.13;20.67;;;;;;;;;;5075827;28;20508;-83
2023/10/26 10:34:30;;;;;;;28.73;19.97;;;;;;;;;;5076957;28;20441;-82
2023/10/26 10:37:21;;;;;;;28.43;21.40;;;;;;;;;;5076671;28;20474;-83
2023/10/26 10:40:06;;;;;;;28.60;18.87;;;;;;;;;;5073427;28;20430;-83
2023/10/26 10:42:33;;;;;;;28.10;19.77;;;;;;;;;;5076340;28;20449;-83
2023/10/26 10:45:01;;;;;;;28.77;19.77;;;;;;;;;;5074876;28;20506;-83
2023/10/26 10:47:32;;;;;;;28.67;18.53;;;;;;;;;;5076031;28;20818;-82
2023/10/26 10:50:14;;;;;;;24.17;19.30;;;;;;;;;;5077126;28;20398;-83
2023/10/26 10:52:41;;;;;;;29.20;21.37;;;;;;;;;;5076501;28;20981;-82
2023/10/26 10:55:08;;;;;;;27.80;19.23;;;;;;;;;;5076641;28;20785;-83
2023/10/26 10:57:34;;;;;;;26.83;20.37;;;;;;;;;;5075830;28;20512;-83
2023/10/26 11:00:00;;;;;;;29.37;20.07;;;;;;;;;;5076465;28;20462;-83
2023/10/26 11:02:27;;;;;;;27.23;20.60;;;;;;;;;;5075272;28;20559;-83
2023/10/26 11:04:55;;;;;;;27.90;19.70;;;;;;;;;;5076268;28;20483;-83
2023/10/26 11:07:25;;;;;;;29.73;19.93;;;;;;;;;;5076523;28;20495;-83
2023/10/26 11:09:55;;;;;;;29.50;20.43;;;;;;;;;;5076346;28;20940;-83
2023/10/26 11:12:22;;;;;;;31.23;20.40;;;;;;;;;;5075796;28;20846;-83
2023/10/26 11:14:50;;;;;;;27.20;19.63;;;;;;;;;;5076060;28;20438;-83
2023/10/26 11:17:16;;;;;;;22.63;18.40;;;;;;;;;;5076167;28;20807;-83
2023/10/26 11:19:43;;;;;;;24.33;18.77;;;;;;;;;;5075954;28;20955;-83
2023/10/26 11:22:12;;;;;;;24.53;17.80;;;;;;;;;;5074242;28;20487;-83
2023/10/26 11:24:39;;;;;;;27.07;19.37;;;;;;;;;;5076080;28;20482;-83
2023/10/26 11:27:09;;;;;;;25.17;19.53;;;;;;;;;;5075394;28;20463;-83
2023/10/26 11:29:35;;;;;;;27.00;18.67;;;;;;;;;;5075816;28;20417;-83
2023/10/26 11:32:01;;;;;;;30.70;19.43;;;;;;;;;;5076010;28;20438;-83
2023/10/26 11:34:28;;;;;;;27.03;18.33;;;;;;;;;;5075773;28;20430;-83
2023/10/26 11:36:54;;;;;;;26.50;18.80;;;;;;;;;;5057799;28;21022;-83
2023/10/26 11:39:22;;;;;;;24.93;18.10;;;;;;;;;;5074342;28;20474;-83
2023/10/26 11:41:52;;;;;;;25.13;17.70;;;;;;;;;;5075338;28;20225;-83
2023/10/26 11:44:26;;;;;;;23.93;16.70;;;;;;;;;;5074039;28;20489;-83
2023/10/26 11:46:59;;;;;;;28.13;18.67;;;;;;;;;;5057424;28;20453;-83
2023/10/26 11:49:37;;;;;;;36.33;19.77;;;;;;;;;;5074094;28;20455;-83
2023/10/26 11:52:03;;;;;;;24.90;16.97;;;;;;;;;;5074831;28;20474;-83
2023/10/26 11:54:31;;;;;;;23.40;16.33;;;;;;;;;;5075307;28;20810;-84
2023/10/26 11:56:58;;;;;;;22.23;17.30;;;;;;;;;;5074428;28;20474;-83
2023/10/26 11:59:24;;;;;;;22.90;17.70;;;;;;;;;;5074748;28;20442;-83
2023/10/26 12:01:51;;;;;;;24.10;16.97;;;;;;;;;;5075121;28;21010;-83
2023/10/26 12:04:17;;;;;;;22.17;15.43;;;;;;;;;;5074383;28;20453;-83
2023/10/26 12:06:45;;;;;;;21.63;16.17;;;;;;;;;;5073928;28;20425;-84
2023/10/26 12:09:13;;;;;;;36.67;16.90;;;;;;;;;;5074117;28;20489;-83
2023/10/26 12:11:43;;;;;;;26.93;17.87;;;;;;;;;;5074529;28;20498;-84
2023/10/26 12:14:10;;;;;;;31.77;17.00;;;;;;;;;;5073882;28;20517;-83
2023/10/26 12:16:36;;;;;;;20.37;15.80;;;;;;;;;;5075019;28;20799;-84
2023/10/26 12:19:02;;;;;;;22.00;16.30;;;;;;;;;;5075490;28;20802;-84
2023/10/26 12:21:29;;;;;;;20.87;16.53;;;;;;;;;;5056832;28;20463;-83
2023/10/26 12:23:56;;;;;;;22.93;16.50;;;;;;;;;;5073903;28;20487;-83
2023/10/26 12:26:23;;;;;;;19.77;16.03;;;;;;;;;;5073084;28;20471;-83
2023/10/26 12:28:50;;;;;;;19.23;14.70;;;;;;;;;;5074465;28;20463;-83
2023/10/26 12:31:17;;;;;;;18.97;14.63;;;;;;;;;;5074533;28;20439;-84
2023/10/26 12:33:43;;;;;;;24.00;17.60;;;;;;;;;;5074383;28;20463;-83
2023/10/26 12:36:10;;;;;;;20.93;15.77;;;;;;;;;;5073028;28;20777;-84
2023/10/26 12:38:36;;;;;;;18.80;14.50;;;;;;;;;;5075069;28;20410;-83
2023/10/26 12:41:02;;;;;;;20.40;16.23;;;;;;;;;;5075370;28;20441;-83
2023/10/26 12:43:29;;;;;;;24.67;17.07;;;;;;;;;;5074448;28;20489;-83
2023/10/26 12:45:56;;;;;;;20.20;15.67;;;;;;;;;;5073658;28;20981;-84
2023/10/26 12:48:23;;;;;;;30.50;17.23;;;;;;;;;;5073976;28;20903;-85
2023/10/26 12:50:49;;;;;;;22.03;15.93;;;;;;;;;;5073532;28;20418;-84
2023/10/26 12:53:16;;;;;;;22.30;15.70;;;;;;;;;;5074010;28;20962;-84
2023/10/26 12:55:42;;;;;;;20.40;16.80;;;;;;;;;;5074556;28;20468;-83
2023/10/26 12:58:08;;;;;;;23.20;15.30;;;;;;;;;;5074540;28;20452;-84
2023/10/26 13:00:35;;;;;;;21.90;16.20;;;;;;;;;;5074721;28;20442;-83
2023/10/26 13:03:03;;;;;;;24.53;17.17;;;;;;;;;;5074184;28;20456;-83
2023/10/26 13:05:29;;;;;;;23.57;16.03;;;;;;;;;;5074411;28;20829;-84
2023/10/26 13:07:55;;;;;;;22.57;16.70;;;;;;;;;;5073609;28;20475;-84
2023/10/26 13:10:22;;;;;;;27.20;18.47;;;;;;;;;;5073665;28;20443;-84
2023/10/26 13:12:48;;;;;;;22.70;16.00;;;;;;;;;;5074381;28;20440;-84
2023/10/26 13:15:14;;;;;;;22.40;16.83;;;;;;;;;;5073432;28;20532;-84
2023/10/26 13:17:41;;;;;;;23.20;16.30;;;;;;;;;;5072629;28;20463;-84
2023/10/26 13:20:10;;;;;;;21.17;16.20;;;;;;;;;;5074902;28;20422;-83
2023/10/26 13:22:37;;;;;;;21.27;15.10;;;;;;;;;;5072864;28;20865;-84
2023/10/26 13:25:03;;;;;;;24.60;16.10;;;;;;;;;;5073126;28;20457;-84
2023/10/26 13:27:30;;;;;;;24.27;16.73;;;;;;;;;;5073845;28;20463;-83
2023/10/26 13:29:56;;;;;;;26.60;16.17;;;;;;;;;;5074065;28;20414;-85
2023/10/26 13:32:22;;;;;;;20.53;16.07;;;;;;;;;;5073253;28;20546;-83
2023/10/26 13:34:50;;;;;;;19.73;14.10;;;;;;;;;;5073120;28;20459;-83
2023/10/26 13:37:18;;;;;;;22.83;15.87;;;;;;;;;;5072649;28;20851;-84
2023/10/26 13:39:45;;;;;;;22.90;15.70;;;;;;;;;;5073113;28;20417;-83
2023/10/26 13:42:11;;;;;;;22.27;16.70;;;;;;;;;;5074363;28;20470;-84
2023/10/26 13:44:37;;;;;;;20.63;16.20;;;;;;;;;;5073171;28;20453;-83
2023/10/26 13:47:04;;;;;;;25.63;19.30;;;;;;;;;;5073435;28;20438;-84
2023/10/26 13:49:30;;;;;;;21.87;16.80;;;;;;;;;;5074128;28;20919;-84
2023/10/26 13:51:57;;;;;;;22.77;17.37;;;;;;;;;;5073714;28;20445;-84
2023/10/26 13:54:25;;;;;;;23.03;16.97;;;;;;;;;;5074044;28;20434;-84
2023/10/26 13:56:52;;;;;;;21.83;16.17;;;;;;;;;;5072332;28;20441;-84
2023/10/26 13:59:19;;;;;;;20.37;15.03;;;;;;;;;;5073957;28;20447;-84
2023/10/26 14:01:45;;;;;;;24.90;16.63;;;;;;;;;;5072693;28;20873;-84
2023/10/26 14:04:14;;;;;;;23.43;15.63;;;;;;;;;;5073869;28;20437;-84
2023/10/26 14:06:40;;;;;;;28.03;17.87;;;;;;;;;;5073244;28;20447;-85
2023/10/26 14:09:07;;;;;;;20.37;16.17;;;;;;;;;;5073857;28;20975;-84
2023/10/26 14:11:35;;;;;;;28.43;17.20;;;;;;;;;;5073753;28;20461;-84
2023/10/26 14:14:01;;;;;;;23.57;16.27;;;;;;;;;;5074552;28;20495;-83
2023/10/26 14:16:27;;;;;;;21.57;16.33;;;;;;;;;;5072497;28;20782;-84
2023/10/26 14:18:54;;;;;;;25.03;17.10;;;;;;;;;;5073690;28;20927;-84
2023/10/26 14:21:21;;;;;;;28.03;16.90;;;;;;;;;;5075721;28;20503;-84
2023/10/26 14:23:48;;;;;;;23.17;17.00;;;;;;;;;;5077514;28;20521;-83
2023/10/26 14:26:15;;;;;;;21.57;17.20;;;;;;;;;;5077000;28;20456;-84